Aérodrome :
LOGIN :

S'inscrire | Disclaimer

   EN    FR    IT 

 










Légende :    VFR   VFR Marginal   IFR   IFR Intensif   IFR Très Intensif
Visi : 
Plafond : 
>= 8 km
>= 3000ft
5 à 8 km
1000 à 3000 ft
1500m à 5 km
500 à 1000 ft
800 à 1500m
200 à 500 ft
< 800m
< 200 ft
Symboles :   Orages  Brouillard  Fortes neiges  Fortes précipitations  Vent > 20 kt
SIGMETs :   Divers  Orages  Givrage  Turbulence  Onde Orograph.  Cendres Volcan.






- Altitude de l'aérodrome : 1367 ft
- Code IATA : FDH


EDNY - Friedrichshafen

DERNIER METAR :
  • 171220Z AUTO 26006KT 240V300 9999 // FEW012/// SCT026/// OVC047/// 01/M00 Q1017

METARs EXPIRÉS :
  • 171150Z AUTO 26007KT 9999 // FEW008/// BKN011/// OVC025/// 01/00 Q1018
  • 171120Z AUTO 26006KT 7000 // FEW007/// BKN009/// OVC018/// 01/00 Q1018
  • 171050Z AUTO 26006KT 230V290 5000 // OVC011/// 01/M00 Q1018
  • 171020Z AUTO 26007KT 240V300 9999 // FEW009/// BKN011/// OVC017/// 01/M00 Q1018
  • 170950Z AUTO 26006KT 230V300 7000 // FEW007/// BKN009/// OVC019/// 01/00 Q1017

TAF TAF EDNY
Valide du 17 à 12h jusqu'au 18 à 12h UTC


171100Z 1712/1812 25006KT 6000 SCT008 BKN012
TEMPO 1712/1809 2500 -SNRA BR FEW003 BKN006
BECMG 1809/1812 SCT012 BKN025



MET'MAP, la Météo Aéronautique d'un coup d'oeil ! - Copyright ORBIFLY Décembre 2007 - Disclaimer

ORBIFLY MET'MAP TEAM :

Programmation & Développement : Alexandra Zaïnal
Sur une idée originale de : Baudouin d'Aumeries
Assistance à la programmation : Marc-Olivier Méhu
Soutien technique & logistique : Manuel Goepfert

Contact : metmap@orbifly.com




SOURCES & CREDITS :

   NOAA